sensor_id;sensor_type;location;lat;lon;timestamp;temperature;humidity
4201;DHT22;2114;50.398;8.814;2022-10-29T00:02:33;14.40;99.90
4201;DHT22;2114;50.398;8.814;2022-10-29T00:07:34;14.30;99.90
4201;DHT22;2114;50.398;8.814;2022-10-29T00:12:34;14.30;99.90
4201;DHT22;2114;50.398;8.814;2022-10-29T00:17:35;14.30;99.90
4201;DHT22;2114;50.398;8.814;2022-10-29T00:22:36;14.20;99.90
4201;DHT22;2114;50.398;8.814;2022-10-29T00:27:36;14.20;99.90
4201;DHT22;2114;50.398;8.814;2022-10-29T00:32:37;14.10;99.90
4201;DHT22;2114;50.398;8.814;2022-10-29T00:37:38;14.10;99.90
4201;DHT22;2114;50.398;8.814;2022-10-29T00:42:40;14.10;99.90
4201;DHT22;2114;50.398;8.814;2022-10-29T00:47:49;14.00;99.90
4201;DHT22;2114;50.398;8.814;2022-10-29T00:52:52;14.00;99.90
4201;DHT22;2114;50.398;8.814;2022-10-29T00:57:54;13.90;99.90
4201;DHT22;2114;50.398;8.814;2022-10-29T01:02:55;13.90;99.90
4201;DHT22;2114;50.398;8.814;2022-10-29T01:07:55;13.90;99.90
4201;DHT22;2114;50.398;8.814;2022-10-29T01:13:02;13.80;99.90
4201;DHT22;2114;50.398;8.814;2022-10-29T01:18:21;13.80;99.90
4201;DHT22;2114;50.398;8.814;2022-10-29T01:23:43;13.80;99.90
4201;DHT22;2114;50.398;8.814;2022-10-29T01:50:18;13.70;99.90
4201;DHT22;2114;50.398;8.814;2022-10-29T01:55:22;13.70;99.90
4201;DHT22;2114;50.398;8.814;2022-10-29T02:00:31;13.70;99.90
4201;DHT22;2114;50.398;8.814;2022-10-29T02:05:56;13.60;99.90
4201;DHT22;2114;50.398;8.814;2022-10-29T02:11:14;13.60;99.90
4201;DHT22;2114;50.398;8.814;2022-10-29T02:16:19;13.50;99.90
4201;DHT22;2114;50.398;8.814;2022-10-29T02:21:22;13.50;99.90
4201;DHT22;2114;50.398;8.814;2022-10-29T02:26:23;13.50;99.90
4201;DHT22;2114;50.398;8.814;2022-10-29T02:31:24;13.40;99.90
4201;DHT22;2114;50.398;8.814;2022-10-29T02:36:24;13.40;99.90
4201;DHT22;2114;50.398;8.814;2022-10-29T02:41:25;13.40;99.90
4201;DHT22;2114;50.398;8.814;2022-10-29T02:46:25;13.40;99.90
4201;DHT22;2114;50.398;8.814;2022-10-29T02:51:26;13.40;99.90
4201;DHT22;2114;50.398;8.814;2022-10-29T02:56:26;13.30;99.90
4201;DHT22;2114;50.398;8.814;2022-10-29T03:01:27;13.30;99.90
4201;DHT22;2114;50.398;8.814;2022-10-29T03:06:28;13.30;99.90
4201;DHT22;2114;50.398;8.814;2022-10-29T03:11:29;13.20;99.90
4201;DHT22;2114;50.398;8.814;2022-10-29T03:16:29;13.20;99.90
4201;DHT22;2114;50.398;8.814;2022-10-29T03:21:30;13.20;99.90
4201;DHT22;2114;50.398;8.814;2022-10-29T03:26:31;13.10;99.90
4201;DHT22;2114;50.398;8.814;2022-10-29T03:31:31;13.10;99.90
4201;DHT22;2114;50.398;8.814;2022-10-29T03:36:32;13.00;99.90
4201;DHT22;2114;50.398;8.814;2022-10-29T03:41:32;12.90;99.90
4201;DHT22;2114;50.398;8.814;2022-10-29T03:46:33;12.80;99.90
4201;DHT22;2114;50.398;8.814;2022-10-29T03:51:33;12.70;99.90
4201;DHT22;2114;50.398;8.814;2022-10-29T03:56:34;12.70;99.90
4201;DHT22;2114;50.398;8.814;2022-10-29T04:01:35;12.60;99.90
4201;DHT22;2114;50.398;8.814;2022-10-29T04:06:35;12.50;99.90
4201;DHT22;2114;50.398;8.814;2022-10-29T04:11:36;12.40;99.90
4201;DHT22;2114;50.398;8.814;2022-10-29T04:16:36;12.40;99.90
4201;DHT22;2114;50.398;8.814;2022-10-29T04:21:37;12.40;99.90
4201;DHT22;2114;50.398;8.814;2022-10-29T04:26:38;12.60;99.90
4201;DHT22;2114;50.398;8.814;2022-10-29T04:31:38;12.80;99.90
4201;DHT22;2114;50.398;8.814;2022-10-29T04:36:39;13.00;99.90
4201;DHT22;2114;50.398;8.814;2022-10-29T04:41:39;13.00;99.90
4201;DHT22;2114;50.398;8.814;2022-10-29T04:46:40;13.20;99.90
4201;DHT22;2114;50.398;8.814;2022-10-29T04:51:40;13.20;99.90
4201;DHT22;2114;50.398;8.814;2022-10-29T04:56:41;13.30;99.90
4201;DHT22;2114;50.398;8.814;2022-10-29T05:01:42;13.30;99.90
4201;DHT22;2114;50.398;8.814;2022-10-29T05:06:42;13.40;99.90
4201;DHT22;2114;50.398;8.814;2022-10-29T05:11:44;13.30;99.90
4201;DHT22;2114;50.398;8.814;2022-10-29T05:16:44;13.40;99.90
4201;DHT22;2114;50.398;8.814;2022-10-29T05:21:45;13.40;99.90
4201;DHT22;2114;50.398;8.814;2022-10-29T05:26:45;13.40;99.90
4201;DHT22;2114;50.398;8.814;2022-10-29T05:31:46;13.50;99.90
4201;DHT22;2114;50.398;8.814;2022-10-29T05:36:47;13.50;99.90
4201;DHT22;2114;50.398;8.814;2022-10-29T05:41:47;13.50;99.90
4201;DHT22;2114;50.398;8.814;2022-10-29T05:46:48;13.50;99.90
4201;DHT22;2114;50.398;8.814;2022-10-29T05:51:49;13.60;99.90
4201;DHT22;2114;50.398;8.814;2022-10-29T05:56:50;13.60;99.90
4201;DHT22;2114;50.398;8.814;2022-10-29T06:01:51;13.60;99.90
4201;DHT22;2114;50.398;8.814;2022-10-29T06:06:52;13.60;99.90
4201;DHT22;2114;50.398;8.814;2022-10-29T06:11:56;13.60;99.90
4201;DHT22;2114;50.398;8.814;2022-10-29T06:16:56;13.60;99.90
4201;DHT22;2114;50.398;8.814;2022-10-29T06:21:57;13.60;99.90
4201;DHT22;2114;50.398;8.814;2022-10-29T06:26:57;13.60;99.90
4201;DHT22;2114;50.398;8.814;2022-10-29T06:31:58;13.70;99.90
4201;DHT22;2114;50.398;8.814;2022-10-29T06:36:58;13.60;99.90
4201;DHT22;2114;50.398;8.814;2022-10-29T06:41:59;13.60;99.90
4201;DHT22;2114;50.398;8.814;2022-10-29T06:46:59;13.60;99.90
4201;DHT22;2114;50.398;8.814;2022-10-29T06:52:00;13.70;99.90
4201;DHT22;2114;50.398;8.814;2022-10-29T06:57:01;13.70;99.90
4201;DHT22;2114;50.398;8.814;2022-10-29T07:02:02;13.70;99.90
4201;DHT22;2114;50.398;8.814;2022-10-29T07:07:02;13.70;99.90
4201;DHT22;2114;50.398;8.814;2022-10-29T07:12:03;13.70;99.90
4201;DHT22;2114;50.398;8.814;2022-10-29T07:17:04;13.80;99.90
4201;DHT22;2114;50.398;8.814;2022-10-29T07:22:04;13.80;99.90
4201;DHT22;2114;50.398;8.814;2022-10-29T07:27:05;13.80;99.90
4201;DHT22;2114;50.398;8.814;2022-10-29T07:32:06;13.80;99.90
4201;DHT22;2114;50.398;8.814;2022-10-29T07:37:07;13.80;99.90
4201;DHT22;2114;50.398;8.814;2022-10-29T07:42:07;13.90;99.90
4201;DHT22;2114;50.398;8.814;2022-10-29T07:47:08;13.90;99.90
4201;DHT22;2114;50.398;8.814;2022-10-29T07:52:09;13.90;99.90
4201;DHT22;2114;50.398;8.814;2022-10-29T07:57:10;13.90;99.90
4201;DHT22;2114;50.398;8.814;2022-10-29T08:02:10;14.00;99.90
4201;DHT22;2114;50.398;8.814;2022-10-29T08:07:11;14.00;99.90
4201;DHT22;2114;50.398;8.814;2022-10-29T08:12:11;14.10;99.90
4201;DHT22;2114;50.398;8.814;2022-10-29T08:17:12;14.20;99.90
4201;DHT22;2114;50.398;8.814;2022-10-29T08:22:13;14.30;99.90
4201;DHT22;2114;50.398;8.814;2022-10-29T08:27:13;14.50;99.90
4201;DHT22;2114;50.398;8.814;2022-10-29T08:32:14;14.60;99.90
4201;DHT22;2114;50.398;8.814;2022-10-29T08:37:14;14.70;99.90
4201;DHT22;2114;50.398;8.814;2022-10-29T08:42:39;14.80;99.90
4201;DHT22;2114;50.398;8.814;2022-10-29T08:47:49;14.90;99.90
4201;DHT22;2114;50.398;8.814;2022-10-29T08:52:52;14.90;99.90
4201;DHT22;2114;50.398;8.814;2022-10-29T08:57:58;15.00;99.90
4201;DHT22;2114;50.398;8.814;2022-10-29T09:03:07;15.10;99.90
4201;DHT22;2114;50.398;8.814;2022-10-29T09:13:50;15.20;99.90
4201;DHT22;2114;50.398;8.814;2022-10-29T09:18:58;15.20;99.90
4201;DHT22;2114;50.398;8.814;2022-10-29T09:29:55;15.30;99.90
4201;DHT22;2114;50.398;8.814;2022-10-29T09:35:05;15.40;99.90
4201;DHT22;2114;50.398;8.814;2022-10-29T09:40:29;15.40;99.90
4201;DHT22;2114;50.398;8.814;2022-10-29T09:51:30;15.60;99.90
4201;DHT22;2114;50.398;8.814;2022-10-29T09:56:34;15.80;99.90
4201;DHT22;2114;50.398;8.814;2022-10-29T10:01:34;16.00;99.90
4201;DHT22;2114;50.398;8.814;2022-10-29T10:12:01;16.70;99.90
4201;DHT22;2114;50.398;8.814;2022-10-29T10:17:06;17.10;99.90
4201;DHT22;2114;50.398;8.814;2022-10-29T10:22:19;17.30;99.90
4201;DHT22;2114;50.398;8.814;2022-10-29T10:27:27;17.50;99.90
4201;DHT22;2114;50.398;8.814;2022-10-29T10:32:28;17.60;99.90
4201;DHT22;2114;50.398;8.814;2022-10-29T10:37:32;17.70;99.90
4201;DHT22;2114;50.398;8.814;2022-10-29T10:42:37;17.80;99.90
4201;DHT22;2114;50.398;8.814;2022-10-29T10:47:45;17.80;99.90
4201;DHT22;2114;50.398;8.814;2022-10-29T10:52:47;17.90;99.90
4201;DHT22;2114;50.398;8.814;2022-10-29T10:57:55;18.10;99.90
4201;DHT22;2114;50.398;8.814;2022-10-29T11:08:23;18.20;99.90
4201;DHT22;2114;50.398;8.814;2022-10-29T11:13:28;18.30;99.90
4201;DHT22;2114;50.398;8.814;2022-10-29T11:23:45;18.50;99.90
4201;DHT22;2114;50.398;8.814;2022-10-29T11:40:12;18.90;99.90
4201;DHT22;2114;50.398;8.814;2022-10-29T11:45:17;18.90;99.90
4201;DHT22;2114;50.398;8.814;2022-10-29T11:50:44;19.00;99.90
4201;DHT22;2114;50.398;8.814;2022-10-29T12:01:26;19.30;99.90
4201;DHT22;2114;50.398;8.814;2022-10-29T12:06:42;19.80;99.90
4201;DHT22;2114;50.398;8.814;2022-10-29T12:12:28;19.80;99.90
4201;DHT22;2114;50.398;8.814;2022-10-29T12:17:39;19.80;99.90
4201;DHT22;2114;50.398;8.814;2022-10-29T12:23:06;19.80;99.90
4201;DHT22;2114;50.398;8.814;2022-10-29T12:28:33;19.90;99.90
4201;DHT22;2114;50.398;8.814;2022-10-29T12:38:56;19.70;99.90
4201;DHT22;2114;50.398;8.814;2022-10-29T12:49:12;19.40;99.90
4201;DHT22;2114;50.398;8.814;2022-10-29T12:54:22;19.40;99.90
4201;DHT22;2114;50.398;8.814;2022-10-29T12:59:35;19.50;99.90
4201;DHT22;2114;50.398;8.814;2022-10-29T13:04:35;19.50;99.90
4201;DHT22;2114;50.398;8.814;2022-10-29T13:09:36;19.40;99.90
4201;DHT22;2114;50.398;8.814;2022-10-29T13:14:49;19.30;99.90
4201;DHT22;2114;50.398;8.814;2022-10-29T13:30:34;19.00;99.90
4201;DHT22;2114;50.398;8.814;2022-10-29T13:35:38;19.00;99.90
4201;DHT22;2114;50.398;8.814;2022-10-29T13:41:01;19.00;99.90
4201;DHT22;2114;50.398;8.814;2022-10-29T13:46:21;18.90;99.90
4201;DHT22;2114;50.398;8.814;2022-10-29T13:51:36;19.00;99.90
4201;DHT22;2114;50.398;8.814;2022-10-29T13:56:57;18.90;99.90
4201;DHT22;2114;50.398;8.814;2022-10-29T14:02:20;19.00;99.90
4201;DHT22;2114;50.398;8.814;2022-10-29T14:07:32;18.90;99.90
4201;DHT22;2114;50.398;8.814;2022-10-29T14:12:34;18.80;99.90
4201;DHT22;2114;50.398;8.814;2022-10-29T14:17:37;18.70;99.90
4201;DHT22;2114;50.398;8.814;2022-10-29T14:22:39;18.70;99.90
4201;DHT22;2114;50.398;8.814;2022-10-29T14:27:40;18.60;99.90
4201;DHT22;2114;50.398;8.814;2022-10-29T14:32:41;18.60;99.90
4201;DHT22;2114;50.398;8.814;2022-10-29T14:37:46;18.60;99.90
4201;DHT22;2114;50.398;8.814;2022-10-29T14:42:52;18.50;99.90
4201;DHT22;2114;50.398;8.814;2022-10-29T14:47:55;18.50;99.90
4201;DHT22;2114;50.398;8.814;2022-10-29T14:52:59;18.50;99.90
4201;DHT22;2114;50.398;8.814;2022-10-29T14:58:12;18.40;99.90
4201;DHT22;2114;50.398;8.814;2022-10-29T15:03:19;18.40;99.90
4201;DHT22;2114;50.398;8.814;2022-10-29T15:08:23;18.30;99.90
4201;DHT22;2114;50.398;8.814;2022-10-29T15:18:29;18.20;99.90
4201;DHT22;2114;50.398;8.814;2022-10-29T15:23:34;18.10;99.90
4201;DHT22;2114;50.398;8.814;2022-10-29T15:28:40;18.00;99.90
4201;DHT22;2114;50.398;8.814;2022-10-29T15:33:41;17.90;99.90
4201;DHT22;2114;50.398;8.814;2022-10-29T15:43:53;17.70;99.90
4201;DHT22;2114;50.398;8.814;2022-10-29T15:48:54;17.60;99.90
4201;DHT22;2114;50.398;8.814;2022-10-29T15:53:56;17.40;99.90
4201;DHT22;2114;50.398;8.814;2022-10-29T15:58:58;17.30;99.90
4201;DHT22;2114;50.398;8.814;2022-10-29T16:03:58;17.20;99.90
4201;DHT22;2114;50.398;8.814;2022-10-29T16:08:59;17.10;99.90
4201;DHT22;2114;50.398;8.814;2022-10-29T16:14:00;17.00;99.90
4201;DHT22;2114;50.398;8.814;2022-10-29T16:19:00;16.80;99.90
4201;DHT22;2114;50.398;8.814;2022-10-29T16:24:01;16.70;99.90
4201;DHT22;2114;50.398;8.814;2022-10-29T16:29:01;16.60;99.90
4201;DHT22;2114;50.398;8.814;2022-10-29T16:34:03;16.50;99.90
4201;DHT22;2114;50.398;8.814;2022-10-29T16:39:04;16.50;99.90
4201;DHT22;2114;50.398;8.814;2022-10-29T16:44:05;16.40;99.90
4201;DHT22;2114;50.398;8.814;2022-10-29T16:49:05;16.20;99.90
4201;DHT22;2114;50.398;8.814;2022-10-29T16:54:06;16.10;99.90
4201;DHT22;2114;50.398;8.814;2022-10-29T16:59:06;16.00;99.90
4201;DHT22;2114;50.398;8.814;2022-10-29T17:04:07;15.90;99.90
4201;DHT22;2114;50.398;8.814;2022-10-29T17:09:08;15.90;99.90
4201;DHT22;2114;50.398;8.814;2022-10-29T17:14:09;15.70;99.90
4201;DHT22;2114;50.398;8.814;2022-10-29T17:19:09;15.60;99.90
4201;DHT22;2114;50.398;8.814;2022-10-29T17:24:10;15.50;99.90
4201;DHT22;2114;50.398;8.814;2022-10-29T17:29:10;15.50;99.90
4201;DHT22;2114;50.398;8.814;2022-10-29T17:34:11;15.40;99.90
4201;DHT22;2114;50.398;8.814;2022-10-29T17:39:11;15.30;99.90
4201;DHT22;2114;50.398;8.814;2022-10-29T17:44:12;15.20;99.90
4201;DHT22;2114;50.398;8.814;2022-10-29T17:49:12;15.20;99.90
4201;DHT22;2114;50.398;8.814;2022-10-29T17:54:14;15.20;99.90
4201;DHT22;2114;50.398;8.814;2022-10-29T17:59:14;15.10;99.90
4201;DHT22;2114;50.398;8.814;2022-10-29T18:04:15;15.10;99.90
4201;DHT22;2114;50.398;8.814;2022-10-29T18:09:15;15.00;99.90
4201;DHT22;2114;50.398;8.814;2022-10-29T18:14:16;14.90;99.90
4201;DHT22;2114;50.398;8.814;2022-10-29T18:19:16;14.90;99.90
4201;DHT22;2114;50.398;8.814;2022-10-29T18:24:17;14.90;99.90
4201;DHT22;2114;50.398;8.814;2022-10-29T18:29:18;14.80;99.90
4201;DHT22;2114;50.398;8.814;2022-10-29T18:34:19;14.80;99.90
4201;DHT22;2114;50.398;8.814;2022-10-29T18:39:19;14.70;99.90
4201;DHT22;2114;50.398;8.814;2022-10-29T18:44:20;14.60;99.90
4201;DHT22;2114;50.398;8.814;2022-10-29T18:49:21;14.60;99.90
4201;DHT22;2114;50.398;8.814;2022-10-29T18:54:21;14.50;99.90
4201;DHT22;2114;50.398;8.814;2022-10-29T18:59:22;14.50;99.90
4201;DHT22;2114;50.398;8.814;2022-10-29T19:04:22;14.40;99.90
4201;DHT22;2114;50.398;8.814;2022-10-29T19:09:23;14.30;99.90
4201;DHT22;2114;50.398;8.814;2022-10-29T19:14:23;14.20;99.90
4201;DHT22;2114;50.398;8.814;2022-10-29T19:19:24;14.20;99.90
4201;DHT22;2114;50.398;8.814;2022-10-29T19:24:24;14.10;99.90
4201;DHT22;2114;50.398;8.814;2022-10-29T19:29:25;14.00;99.90
4201;DHT22;2114;50.398;8.814;2022-10-29T19:34:26;14.00;99.90
4201;DHT22;2114;50.398;8.814;2022-10-29T19:39:26;13.90;99.90
4201;DHT22;2114;50.398;8.814;2022-10-29T19:44:27;13.90;99.90
4201;DHT22;2114;50.398;8.814;2022-10-29T19:49:27;13.90;99.90
4201;DHT22;2114;50.398;8.814;2022-10-29T19:54:28;13.90;99.90
4201;DHT22;2114;50.398;8.814;2022-10-29T19:59:29;13.80;99.90
4201;DHT22;2114;50.398;8.814;2022-10-29T20:04:29;13.80;99.90
4201;DHT22;2114;50.398;8.814;2022-10-29T20:09:30;13.80;99.90
4201;DHT22;2114;50.398;8.814;2022-10-29T20:14:30;13.80;99.90
4201;DHT22;2114;50.398;8.814;2022-10-29T20:19:34;13.80;99.90
4201;DHT22;2114;50.398;8.814;2022-10-29T20:24:35;13.80;99.90
4201;DHT22;2114;50.398;8.814;2022-10-29T20:29:36;13.80;99.90
4201;DHT22;2114;50.398;8.814;2022-10-29T20:34:36;13.80;99.90
4201;DHT22;2114;50.398;8.814;2022-10-29T20:39:37;13.90;99.90
4201;DHT22;2114;50.398;8.814;2022-10-29T20:44:37;13.90;99.90
4201;DHT22;2114;50.398;8.814;2022-10-29T20:49:39;13.90;99.90
4201;DHT22;2114;50.398;8.814;2022-10-29T20:54:40;13.90;99.90
4201;DHT22;2114;50.398;8.814;2022-10-29T20:59:40;13.90;99.90
4201;DHT22;2114;50.398;8.814;2022-10-29T21:04:41;13.90;99.90
4201;DHT22;2114;50.398;8.814;2022-10-29T21:09:42;13.90;99.90
4201;DHT22;2114;50.398;8.814;2022-10-29T21:14:42;13.90;99.90
4201;DHT22;2114;50.398;8.814;2022-10-29T21:19:43;13.80;99.90
4201;DHT22;2114;50.398;8.814;2022-10-29T21:24:44;13.80;99.90
4201;DHT22;2114;50.398;8.814;2022-10-29T21:29:44;13.70;99.90
4201;DHT22;2114;50.398;8.814;2022-10-29T21:34:45;13.70;99.90
4201;DHT22;2114;50.398;8.814;2022-10-29T21:39:46;13.60;99.90
4201;DHT22;2114;50.398;8.814;2022-10-29T21:44:47;13.60;99.90
4201;DHT22;2114;50.398;8.814;2022-10-29T21:49:47;13.50;99.90
4201;DHT22;2114;50.398;8.814;2022-10-29T21:54:48;13.50;99.90
4201;DHT22;2114;50.398;8.814;2022-10-29T21:59:48;13.40;99.90
4201;DHT22;2114;50.398;8.814;2022-10-29T22:04:49;13.30;99.90
4201;DHT22;2114;50.398;8.814;2022-10-29T22:09:49;13.30;99.90
4201;DHT22;2114;50.398;8.814;2022-10-29T22:14:50;13.30;99.90
4201;DHT22;2114;50.398;8.814;2022-10-29T22:19:50;13.30;99.90
4201;DHT22;2114;50.398;8.814;2022-10-29T22:24:51;13.30;99.90
4201;DHT22;2114;50.398;8.814;2022-10-29T22:29:51;13.30;99.90
4201;DHT22;2114;50.398;8.814;2022-10-29T22:34:52;13.30;99.90
4201;DHT22;2114;50.398;8.814;2022-10-29T22:39:52;13.20;99.90
4201;DHT22;2114;50.398;8.814;2022-10-29T22:44:53;13.20;99.90
4201;DHT22;2114;50.398;8.814;2022-10-29T22:49:53;13.20;99.90
4201;DHT22;2114;50.398;8.814;2022-10-29T22:54:55;13.20;99.90
4201;DHT22;2114;50.398;8.814;2022-10-29T22:59:56;13.10;99.90
4201;DHT22;2114;50.398;8.814;2022-10-29T23:04:56;13.10;99.90
4201;DHT22;2114;50.398;8.814;2022-10-29T23:09:57;13.10;99.90
4201;DHT22;2114;50.398;8.814;2022-10-29T23:14:58;13.00;99.90
4201;DHT22;2114;50.398;8.814;2022-10-29T23:19:58;13.10;99.90
4201;DHT22;2114;50.398;8.814;2022-10-29T23:24:59;13.00;99.90
4201;DHT22;2114;50.398;8.814;2022-10-29T23:29:59;13.00;99.90
4201;DHT22;2114;50.398;8.814;2022-10-29T23:35:00;13.00;99.90
4201;DHT22;2114;50.398;8.814;2022-10-29T23:40:00;12.90;99.90
4201;DHT22;2114;50.398;8.814;2022-10-29T23:45:01;12.90;99.90
4201;DHT22;2114;50.398;8.814;2022-10-29T23:50:01;12.90;99.90
4201;DHT22;2114;50.398;8.814;2022-10-29T23:55:02;12.90;99.90
